Bountiful, Utah
Current Conditions -  °F | °C
As of 9:53 PM on Friday 19 Dec 2014 (Local Time) from KSLC Reporting Station
Overcast Overcast  
Wind Chill: 36°   Ceiling: 6000
Heat Index: 41°   Visibility: 10mi
Dew Point: 30°   Wind: 7mph
Humidity: 65%   Direction: 360°N
Pressure: 30.14"   Gusts: NA
Location:  40.88°N, 111.87°W
Report Text: KSLC 200453Z 36006KT 10SM FEW050 BKN060 OVC080 05/M01 A3014 RMK AO2 SLP205 SH DSNT W-N T00501011
Loading
Personal Weather Stations






























Interactive Weather Map New forecast layout! Learn more

10-Day Weather Forecast

Advertisements
Track Severe Weather on mobile